createdAt,value
2019-04-23T00:00:45.158Z,993.66
2019-04-23T00:05:56.310Z,993.61
2019-04-23T00:10:42.553Z,993.54
2019-04-23T00:15:51.707Z,993.54
2019-04-23T00:20:45.989Z,993.46
2019-04-23T00:30:48.148Z,993.40
2019-04-23T00:35:48.665Z,993.29
2019-04-23T00:40:43.922Z,993.36
2019-04-23T01:00:41.556Z,993.23
2019-04-23T01:05:41.068Z,993.20
2019-04-23T01:10:45.953Z,993.10
2019-04-23T01:15:42.736Z,993.14
2019-04-23T01:25:31.001Z,993.01
2019-04-23T01:30:52.895Z,993.03
2019-04-23T01:35:55.654Z,992.97
2019-04-23T01:40:40.606Z,992.92
2019-04-23T01:45:31.023Z,992.99
2019-04-23T01:55:33.728Z,992.95
2019-04-23T02:00:34.241Z,992.89
2019-04-23T02:05:41.322Z,992.91
2019-04-23T02:10:42.603Z,992.80
2019-04-23T02:15:42.492Z,992.70
2019-04-23T02:20:39.849Z,992.74
2019-04-23T02:30:59.858Z,992.68
2019-04-23T02:41:02.295Z,992.50
2019-04-23T02:50:49.140Z,992.40
2019-04-23T02:55:58.656Z,992.37
2019-04-23T03:00:55.607Z,992.29
2019-04-23T03:10:44.832Z,992.29
2019-04-23T03:21:00.418Z,992.30
2019-04-23T03:25:31.234Z,992.24
2019-04-23T03:30:42.329Z,992.32
2019-04-23T03:40:28.533Z,992.10
2019-04-23T03:50:41.325Z,992.13
2019-04-23T03:55:45.651Z,991.99
2019-04-23T04:05:47.275Z,992.05
2019-04-23T04:25:35.952Z,992.07
2019-04-23T04:35:38.492Z,992.07
2019-04-23T04:50:32.869Z,991.94
2019-04-23T05:00:59.094Z,991.87
2019-04-23T05:10:43.351Z,991.82
2019-04-23T05:15:37.343Z,991.85
2019-04-23T05:25:36.623Z,991.83
2019-04-23T05:30:38.173Z,991.73
2019-04-23T05:35:46.678Z,991.79
2019-04-23T05:40:30.753Z,991.71
2019-04-23T05:45:21.842Z,991.71
2019-04-23T05:55:27.363Z,991.62
2019-04-23T06:00:32.385Z,991.63
2019-04-23T06:05:33.006Z,991.56
2019-04-23T06:20:34.981Z,991.33
2019-04-23T06:35:22.543Z,991.36
2019-04-23T06:40:27.731Z,991.34
2019-04-23T06:45:29.305Z,991.33
2019-04-23T06:50:27.110Z,991.25
2019-04-23T07:05:32.603Z,991.18
2019-04-23T07:10:32.144Z,991.08
2019-04-23T07:20:28.634Z,991.05
2019-04-23T07:25:26.962Z,990.90
2019-04-23T07:30:31.458Z,990.80
2019-04-23T07:35:21.241Z,990.84
2019-04-23T07:40:40.485Z,990.71
2019-04-23T07:45:29.636Z,990.69
2019-04-23T07:55:34.615Z,990.49
2019-04-23T08:00:39.379Z,990.31
2019-04-23T08:05:31.972Z,990.22
2019-04-23T08:10:34.360Z,990.31
2019-04-23T08:20:24.580Z,990.22
2019-04-23T08:25:35.558Z,990.14
2019-04-23T08:30:18.009Z,990.18
2019-04-23T08:40:20.667Z,989.95
2019-04-23T08:45:28.725Z,989.87
2019-04-23T08:50:32.205Z,989.75
2019-04-23T08:55:32.256Z,989.68
2019-04-23T09:00:33.682Z,989.64
2019-04-23T09:10:29.802Z,989.55
2019-04-23T09:15:30.135Z,989.48
2019-04-23T09:25:44.531Z,989.49
2019-04-23T09:30:16.826Z,989.49
2019-04-23T09:35:14.434Z,989.49
2019-04-23T09:40:34.412Z,989.33
2019-04-23T09:45:15.552Z,989.25
2019-04-23T09:50:20.428Z,989.23
2019-04-23T09:55:28.669Z,989.21
2019-04-23T10:05:04.473Z,989.17
2019-04-23T10:09:55.374Z,989.08
2019-04-23T10:15:03.307Z,988.97
2019-04-23T10:19:55.670Z,988.95
2019-04-23T10:24:57.052Z,988.92
2019-04-23T10:29:56.110Z,988.96
2019-04-23T10:35:05.199Z,988.85
2019-04-23T10:39:59.233Z,988.79
2019-04-23T10:45:08.760Z,988.77
2019-04-23T10:50:31.660Z,988.85
2019-04-23T10:55:27.678Z,988.77
2019-04-23T11:00:19.881Z,988.82
2019-04-23T11:05:06.459Z,988.78
2019-04-23T11:10:08.586Z,988.71
2019-04-23T11:15:28.759Z,988.68
2019-04-23T11:20:25.524Z,988.66
2019-04-23T11:25:28.460Z,988.63
2019-04-23T11:30:29.364Z,988.50
2019-04-23T11:35:26.192Z,988.56
2019-04-23T11:45:24.780Z,988.51
2019-04-23T11:50:13.817Z,988.58
2019-04-23T11:55:24.629Z,988.48
2019-04-23T12:05:20.721Z,988.49
2019-04-23T12:15:03.646Z,988.42
2019-04-23T12:20:13.054Z,988.40
2019-04-23T12:25:07.723Z,988.38
2019-04-23T12:30:17.259Z,988.24
2019-04-23T12:35:16.802Z,988.36
2019-04-23T12:40:19.195Z,988.14
2019-04-23T12:45:07.154Z,988.11
2019-04-23T12:50:37.958Z,988.03
2019-04-23T12:55:17.145Z,988.09
2019-04-23T13:00:05.079Z,987.93
2019-04-23T13:09:58.310Z,987.80
2019-04-23T13:14:57.291Z,987.77
2019-04-23T13:20:07.572Z,987.66
2019-04-23T13:25:01.972Z,987.58
2019-04-23T13:30:06.726Z,987.50
2019-04-23T13:35:04.730Z,987.48
2019-04-23T13:39:51.536Z,987.48
2019-04-23T13:50:07.153Z,987.31
2019-04-23T14:05:02.079Z,987.22
2019-04-23T14:09:54.551Z,987.20
2019-04-23T14:15:04.904Z,987.18
2019-04-23T14:19:53.919Z,987.15
2019-04-23T14:30:08.476Z,987.08
2019-04-23T14:40:05.644Z,986.98
2019-04-23T14:55:35.586Z,987.01
2019-04-23T15:00:03.270Z,986.96
2019-04-23T15:04:56.510Z,987.03
2019-04-23T15:10:03.048Z,987.01
2019-04-23T15:14:51.218Z,986.97
2019-04-23T15:19:59.978Z,986.91
2019-04-23T15:25:03.775Z,986.94
2019-04-23T15:29:44.992Z,986.91
2019-04-23T15:34:57.551Z,986.99
2019-04-23T15:40:00.797Z,987.02
2019-04-23T15:44:48.747Z,986.99
2019-04-23T15:50:06.121Z,986.99
2019-04-23T15:54:50.553Z,986.97
2019-04-23T15:59:56.033Z,986.95
2019-04-23T16:04:27.695Z,986.84
2019-04-23T16:10:04.339Z,986.89
2019-04-23T16:20:11.433Z,986.83
2019-04-23T16:25:02.788Z,986.92
2019-04-23T16:34:56.652Z,986.92
2019-04-23T16:40:01.859Z,986.91
2019-04-23T16:45:06.038Z,986.80
2019-04-23T16:54:54.615Z,986.79
2019-04-23T17:00:08.272Z,986.73
2019-04-23T17:04:57.943Z,986.70
2019-04-23T17:10:01.221Z,986.67
2019-04-23T17:14:54.451Z,986.80
2019-04-23T17:29:52.902Z,986.71
2019-04-23T17:39:52.770Z,986.70
2019-04-23T17:54:59.830Z,986.77
2019-04-23T18:00:05.562Z,986.79
2019-04-23T18:04:58.820Z,986.83
2019-04-23T18:14:43.915Z,986.95
2019-04-23T18:19:48.384Z,986.92
2019-04-23T18:24:41.320Z,986.91
2019-04-23T18:35:08.826Z,986.94
2019-04-23T18:39:48.466Z,986.88
2019-04-23T18:59:55.092Z,986.96
2019-04-23T19:10:04.273Z,987.03
2019-04-23T19:14:47.994Z,987.05
2019-04-23T19:19:53.199Z,987.04
2019-04-23T19:39:46.991Z,987.11
2019-04-23T19:44:45.487Z,987.13
2019-04-23T19:54:52.649Z,987.28
2019-04-23T19:59:50.726Z,987.25
2019-04-23T20:04:39.480Z,987.30
2019-04-23T20:09:48.713Z,987.35
2019-04-23T20:14:48.822Z,987.29
2019-04-23T20:19:44.828Z,987.29
2019-04-23T20:30:05.401Z,987.26
2019-04-23T20:34:40.178Z,987.39
2019-04-23T20:39:49.207Z,987.23
2019-04-23T20:55:38.522Z,987.28
2019-04-23T20:59:49.344Z,987.14
2019-04-23T21:04:47.732Z,987.14
2019-04-23T21:09:51.555Z,987.24
2019-04-23T21:19:50.551Z,987.21
2019-04-23T21:24:35.048Z,987.23
2019-04-23T21:29:46.839Z,987.18
2019-04-23T21:34:45.338Z,987.23
2019-04-23T22:04:35.702Z,987.18
2019-04-23T22:09:47.533Z,987.26
2019-04-23T22:14:40.154Z,987.29
2019-04-23T22:19:27.769Z,987.28
2019-04-23T22:24:43.443Z,987.31
2019-04-23T22:29:39.145Z,987.36
2019-04-23T22:34:42.108Z,987.41
2019-04-23T22:39:32.161Z,987.40
2019-04-23T22:44:39.590Z,987.37
2019-04-23T22:49:41.816Z,987.43
2019-04-23T22:54:32.389Z,987.37
2019-04-23T23:04:40.461Z,987.42
2019-04-23T23:09:28.998Z,987.48
2019-04-23T23:14:22.444Z,987.48
2019-04-23T23:19:38.974Z,987.56
2019-04-23T23:24:18.211Z,987.59
2019-04-23T23:29:32.277Z,987.54
2019-04-23T23:34:39.870Z,987.60
2019-04-23T23:39:22.709Z,987.69
2019-04-23T23:44:45.246Z,987.63
2019-04-23T23:49:38.527Z,987.55
2019-04-23T23:54:27.557Z,987.55
